Time;durP1;ratioP1;P1;durP2;ratioP2;P2;SDS_P1;SDS_P2;PMS_P1;PMS_P2;Temp;Humidity;BMP_temperature;BMP_pressure;BME280_temperature;BME280_humidity;BME280_pressure;Samples;Min_cycle;Max_cycle;Signal;HPM_P1;HPM_P2
2023/04/15 00:01:26;;;;;;;;;;;27.20;99.90;;;;;;5071230;28;19923;-72
2023/04/15 00:03:53;;;;;;;;;;;27.30;99.90;;;;;;5065078;28;19996;-72
2023/04/15 00:06:21;;;;;;;;;;;27.30;99.90;;;;;;5057729;28;20342;-72
2023/04/15 00:08:49;;;;;;;;;;;27.30;99.90;;;;;;5057615;28;19959;-72
2023/04/15 00:11:16;;;;;;;;;;;27.30;99.90;;;;;;5057319;28;19909;-71
2023/04/15 00:13:42;;;;;;;;;;;27.30;99.90;;;;;;5057317;28;19912;-71
2023/04/15 00:16:09;;;;;;;;;;;27.30;99.90;;;;;;5057391;28;20003;-72
2023/04/15 00:18:36;;;;;;;;;;;27.30;99.90;;;;;;5057178;28;19911;-73
2023/04/15 00:21:03;;;;;;;;;;;27.30;99.90;;;;;;5057112;28;19905;-73
2023/04/15 00:23:30;;;;;;;;;;;27.40;99.90;;;;;;5057091;28;19904;-72
2023/04/15 00:25:56;;;;;;;;;;;27.40;99.90;;;;;;5057179;28;19909;-72
2023/04/15 00:28:22;;;;;;;;;;;27.40;99.90;;;;;;5056970;28;20150;-72
2023/04/15 00:30:48;;;;;;;;;;;27.40;99.90;;;;;;5056994;28;19958;-72
2023/04/15 00:33:15;;;;;;;;;;;27.40;99.90;;;;;;5057044;28;19947;-71
2023/04/15 00:35:41;;;;;;;;;;;27.50;99.90;;;;;;5056861;28;19905;-73
2023/04/15 00:38:07;;;;;;;;;;;27.50;99.90;;;;;;5056651;28;19912;-73
2023/04/15 00:40:34;;;;;;;;;;;27.60;99.90;;;;;;5056753;28;20001;-71
2023/04/15 00:43:00;;;;;;;;;;;27.50;99.90;;;;;;5056493;28;20323;-70
2023/04/15 00:45:28;;;;;;;;;;;27.60;99.90;;;;;;5056838;28;19909;-71
2023/04/15 00:47:54;;;;;;;;;;;27.50;99.90;;;;;;5056699;28;20268;-70
2023/04/15 00:50:20;;;;;;;;;;;27.50;99.90;;;;;;5056440;28;19909;-71
2023/04/15 00:52:47;;;;;;;;;;;27.60;99.90;;;;;;5056047;28;19916;-71
2023/04/15 00:55:13;;;;;;;;;;;27.80;99.90;;;;;;5056745;28;20346;-73
2023/04/15 00:57:39;;;;;;;;;;;27.80;99.90;;;;;;5056561;28;20320;-70
2023/04/15 01:00:08;;;;;;;;;;;27.90;99.90;;;;;;5056605;28;19983;-72
2023/04/15 01:02:35;;;;;;;;;;;28.00;99.90;;;;;;5056413;28;19995;-71
2023/04/15 01:05:05;;;;;;;;;;;28.10;99.90;;;;;;5056230;28;19908;-69
2023/04/15 01:07:31;;;;;;;;;;;28.10;99.90;;;;;;5056441;28;19916;-72
2023/04/15 01:09:57;;;;;;;;;;;28.20;99.90;;;;;;5056404;28;19995;-72
2023/04/15 01:12:25;;;;;;;;;;;28.20;99.90;;;;;;5056185;28;19905;-72
2023/04/15 01:14:52;;;;;;;;;;;28.20;99.90;;;;;;5056081;28;19908;-72
2023/04/15 01:17:18;;;;;;;;;;;28.20;99.90;;;;;;5056173;28;19961;-72
2023/04/15 01:19:45;;;;;;;;;;;28.20;99.90;;;;;;5055916;28;19905;-70
2023/04/15 01:22:11;;;;;;;;;;;28.20;99.90;;;;;;5056163;28;20180;-72
2023/04/15 01:24:37;;;;;;;;;;;28.10;99.90;;;;;;5056099;28;19911;-72
2023/04/15 01:27:04;;;;;;;;;;;28.10;99.90;;;;;;5055982;28;19908;-72
2023/04/15 01:29:31;;;;;;;;;;;28.10;99.90;;;;;;5055876;28;19904;-72
2023/04/15 01:31:57;;;;;;;;;;;28.10;99.90;;;;;;5055885;28;20336;-72
2023/04/15 01:34:23;;;;;;;;;;;28.10;99.90;;;;;;5055957;28;19908;-73
2023/04/15 01:36:50;;;;;;;;;;;28.20;99.90;;;;;;5055774;28;19927;-72
2023/04/15 01:39:16;;;;;;;;;;;28.30;99.90;;;;;;5055671;28;19917;-72
2023/04/15 01:41:42;;;;;;;;;;;28.30;99.90;;;;;;5055964;28;19992;-72
2023/04/15 01:44:09;;;;;;;;;;;28.30;99.90;;;;;;5055672;28;20396;-71
2023/04/15 01:46:35;;;;;;;;;;;28.40;99.90;;;;;;5055603;28;19939;-72
2023/04/15 01:49:01;;;;;;;;;;;28.40;99.90;;;;;;5055616;28;19904;-72
2023/04/15 01:51:27;;;;;;;;;;;28.50;99.90;;;;;;5060790;28;19916;-72
2023/04/15 01:53:55;;;;;;;;;;;28.50;99.90;;;;;;5058194;28;20269;-70
2023/04/15 01:56:23;;;;;;;;;;;28.60;99.90;;;;;;5055904;28;20350;-69
2023/04/15 01:58:49;;;;;;;;;;;28.60;99.90;;;;;;5055329;28;20242;-69
2023/04/15 02:01:18;;;;;;;;;;;28.70;99.90;;;;;;5055349;28;19912;-69
2023/04/15 02:03:45;;;;;;;;;;;28.70;99.90;;;;;;5054929;28;19911;-69
2023/04/15 02:06:11;;;;;;;;;;;28.70;99.90;;;;;;5059769;28;19908;-70
2023/04/15 02:08:37;;;;;;;;;;;28.80;99.90;;;;;;5075122;28;19904;-69
2023/04/15 02:11:04;;;;;;;;;;;28.90;99.90;;;;;;5075107;28;19908;-70
2023/04/15 02:13:30;;;;;;;;;;;29.00;99.90;;;;;;5075123;28;19904;-70
2023/04/15 02:15:56;;;;;;;;;;;29.00;99.90;;;;;;5075150;28;19908;-70
2023/04/15 02:18:22;;;;;;;;;;;29.00;99.90;;;;;;5074869;28;19905;-69
2023/04/15 02:20:50;;;;;;;;;;;28.90;99.90;;;;;;5074743;28;19901;-69
2023/04/15 02:23:16;;;;;;;;;;;28.90;99.90;;;;;;5074794;28;19912;-71
2023/04/15 02:25:42;;;;;;;;;;;28.90;99.90;;;;;;5074740;28;19905;-71
2023/04/15 02:28:08;;;;;;;;;;;28.90;99.90;;;;;;5074966;28;19911;-69
2023/04/15 02:30:34;;;;;;;;;;;28.90;99.90;;;;;;5074546;28;19943;-70
2023/04/15 02:33:01;;;;;;;;;;;28.80;99.90;;;;;;5072560;28;19970;-70
2023/04/15 02:35:27;;;;;;;;;;;28.90;99.90;;;;;;5064595;28;19905;-71
2023/04/15 02:37:53;;;;;;;;;;;28.90;99.90;;;;;;5054327;28;19905;-71
2023/04/15 02:40:19;;;;;;;;;;;29.00;99.90;;;;;;5066237;28;20249;-71
2023/04/15 02:42:45;;;;;;;;;;;29.00;99.90;;;;;;5090041;28;19904;-72
2023/04/15 02:45:12;;;;;;;;;;;29.10;99.90;;;;;;5056605;28;19905;-73
2023/04/15 02:47:40;;;;;;;;;;;29.20;99.90;;;;;;5054451;28;19947;-73
2023/04/15 02:50:11;;;;;;;;;;;29.30;99.90;;;;;;5054686;28;19938;-72
2023/04/15 02:52:40;;;;;;;;;;;29.30;99.90;;;;;;5054415;28;19916;-67
2023/04/15 02:55:09;;;;;;;;;;;29.40;99.90;;;;;;5060017;28;19920;-70
2023/04/15 02:57:38;;;;;;;;;;;29.50;99.90;;;;;;5088836;28;20276;-71
2023/04/15 03:00:05;;;;;;;;;;;29.50;99.90;;;;;;5094213;28;19908;-72
2023/04/15 03:02:34;;;;;;;;;;;29.50;99.90;;;;;;5094423;28;19903;-70
2023/04/15 03:05:00;;;;;;;;;;;29.50;99.90;;;;;;5090262;28;19974;-67
2023/04/15 03:07:26;;;;;;;;;;;29.60;99.90;;;;;;5064958;28;19913;-71
2023/04/15 03:09:52;;;;;;;;;;;29.60;99.90;;;;;;5054060;28;19905;-71
2023/04/15 03:12:18;;;;;;;;;;;29.60;99.90;;;;;;5054065;28;19905;-69
2023/04/15 03:14:44;;;;;;;;;;;29.70;99.90;;;;;;5054031;28;20277;-72
2023/04/15 03:17:10;;;;;;;;;;;29.70;99.90;;;;;;5053912;28;19936;-70
2023/04/15 03:19:36;;;;;;;;;;;29.70;99.90;;;;;;5061643;28;19916;-70
2023/04/15 03:22:03;;;;;;;;;;;29.80;99.90;;;;;;5073376;28;19908;-70
2023/04/15 03:24:29;;;;;;;;;;;29.90;99.90;;;;;;5073282;28;19908;-70
2023/04/15 03:26:56;;;;;;;;;;;29.90;99.90;;;;;;5072490;28;19904;-70
2023/04/15 03:29:22;;;;;;;;;;;29.90;99.90;;;;;;5073183;28;19905;-70
2023/04/15 03:31:49;;;;;;;;;;;30.00;99.90;;;;;;5072903;28;19915;-71
2023/04/15 03:34:15;;;;;;;;;;;30.00;99.90;;;;;;5073010;28;19908;-71
2023/04/15 03:36:41;;;;;;;;;;;30.00;99.90;;;;;;5069036;28;19908;-72
2023/04/15 03:39:07;;;;;;;;;;;30.10;99.90;;;;;;5072129;28;19911;-71
2023/04/15 03:41:33;;;;;;;;;;;30.10;99.90;;;;;;5072985;28;19996;-71
2023/04/15 03:43:59;;;;;;;;;;;30.10;99.90;;;;;;5072946;28;20345;-71
2023/04/15 03:46:26;;;;;;;;;;;30.10;99.90;;;;;;5072922;28;20420;-72
2023/04/15 03:48:52;;;;;;;;;;;30.30;99.90;;;;;;5072881;28;19904;-71
2023/04/15 03:51:19;;;;;;;;;;;30.40;99.90;;;;;;5072542;28;19916;-69
2023/04/15 03:53:45;;;;;;;;;;;30.50;99.90;;;;;;5072888;28;19912;-71
2023/04/15 03:56:11;;;;;;;;;;;30.60;99.90;;;;;;5072838;28;19904;-71
2023/04/15 03:58:37;;;;;;;;;;;30.70;99.90;;;;;;5072533;28;19915;-71
2023/04/15 04:01:03;;;;;;;;;;;30.80;99.90;;;;;;5072656;28;19911;-72
2023/04/15 04:03:30;;;;;;;;;;;30.70;99.90;;;;;;5068330;28;20042;-71
2023/04/15 04:05:56;;;;;;;;;;;30.70;99.90;;;;;;5072450;28;19950;-71
2023/04/15 04:08:22;;;;;;;;;;;30.80;99.90;;;;;;5069869;28;19905;-71
2023/04/15 04:10:48;;;;;;;;;;;30.80;99.90;;;;;;5068065;28;19912;-71
2023/04/15 04:13:15;;;;;;;;;;;30.80;99.90;;;;;;5071720;28;19908;-71
2023/04/15 04:15:41;;;;;;;;;;;30.90;99.90;;;;;;5071537;28;19912;-71
2023/04/15 04:18:07;;;;;;;;;;;30.80;99.90;;;;;;5071850;28;19904;-71
2023/04/15 04:20:33;;;;;;;;;;;30.80;99.90;;;;;;5072229;28;19911;-71
2023/04/15 04:22:59;;;;;;;;;;;30.90;99.90;;;;;;5072083;28;19911;-72
2023/04/15 04:25:26;;;;;;;;;;;31.00;99.90;;;;;;5072077;28;19912;-72
2023/04/15 04:27:52;;;;;;;;;;;31.10;99.90;;;;;;5070790;28;20349;-71
2023/04/15 04:30:18;;;;;;;;;;;31.20;99.90;;;;;;5071561;28;19908;-72
2023/04/15 04:32:45;;;;;;;;;;;31.30;99.90;;;;;;5075588;28;19959;-72
2023/04/15 04:35:11;;;;;;;;;;;31.30;99.90;;;;;;5076008;28;19905;-71
2023/04/15 04:37:37;;;;;;;;;;;31.40;99.90;;;;;;5075521;28;19904;-71
2023/04/15 04:40:03;;;;;;;;;;;31.50;99.90;;;;;;5075916;28;19908;-72
2023/04/15 04:42:30;;;;;;;;;;;31.70;99.90;;;;;;5075780;28;20269;-72
2023/04/15 04:44:56;;;;;;;;;;;31.70;99.90;;;;;;5077508;28;19913;-68
2023/04/15 04:47:22;;;;;;;;;;;31.70;99.90;;;;;;5073795;28;19919;-70
2023/04/15 04:49:48;;;;;;;;;;;31.70;99.90;;;;;;5058036;28;19904;-71
2023/04/15 04:52:15;;;;;;;;;;;31.80;99.90;;;;;;5095790;28;19915;-72
2023/04/15 04:54:41;;;;;;;;;;;31.80;99.90;;;;;;5096582;28;19915;-69
2023/04/15 04:57:07;;;;;;;;;;;31.90;99.90;;;;;;5096678;28;20278;-70
2023/04/15 04:59:33;;;;;;;;;;;31.80;99.90;;;;;;5096618;28;20009;-70
2023/04/15 05:01:59;;;;;;;;;;;31.80;99.90;;;;;;5096125;28;20280;-71
2023/04/15 05:04:25;;;;;;;;;;;31.90;99.90;;;;;;5096318;28;19908;-73
2023/04/15 05:06:51;;;;;;;;;;;31.90;99.90;;;;;;5096091;28;19904;-70
2023/04/15 05:09:18;;;;;;;;;;;31.90;99.90;;;;;;5096062;28;19904;-72
2023/04/15 05:11:44;;;;;;;;;;;32.00;99.90;;;;;;5095871;28;19964;-68
2023/04/15 05:14:10;;;;;;;;;;;32.00;99.90;;;;;;5095795;28;20438;-69
2023/04/15 05:16:36;;;;;;;;;;;32.00;99.90;;;;;;5095664;28;19908;-70
2023/04/15 05:19:02;;;;;;;;;;;32.00;99.90;;;;;;5077996;28;19911;-71
2023/04/15 05:21:28;;;;;;;;;;;32.10;99.90;;;;;;5075460;28;19999;-71
2023/04/15 05:23:54;;;;;;;;;;;32.20;99.90;;;;;;5075346;28;19912;-68
2023/04/15 05:26:21;;;;;;;;;;;32.30;99.90;;;;;;5075045;28;19966;-71
2023/04/15 05:28:47;;;;;;;;;;;32.40;99.90;;;;;;5075015;28;19908;-72
2023/04/15 05:31:13;;;;;;;;;;;32.40;99.90;;;;;;5074735;28;19908;-69
2023/04/15 05:33:39;;;;;;;;;;;32.30;99.90;;;;;;5074858;28;19915;-69
2023/04/15 05:36:06;;;;;;;;;;;32.30;99.90;;;;;;5075603;28;20357;-70
2023/04/15 05:38:32;;;;;;;;;;;32.30;99.90;;;;;;5070789;28;20365;-71
2023/04/15 05:40:58;;;;;;;;;;;32.40;99.90;;;;;;5074305;28;20381;-70
2023/04/15 05:43:24;;;;;;;;;;;32.40;99.90;;;;;;5075588;28;19911;-70
2023/04/15 05:45:51;;;;;;;;;;;32.40;99.90;;;;;;5075612;28;19911;-70
2023/04/15 05:48:17;;;;;;;;;;;32.50;99.90;;;;;;5069151;28;19912;-72
2023/04/15 05:50:43;;;;;;;;;;;32.60;99.90;;;;;;5074960;28;20368;-69
2023/04/15 05:53:09;;;;;;;;;;;32.70;99.90;;;;;;5075011;28;19916;-72
2023/04/15 05:55:35;;;;;;;;;;;32.70;99.90;;;;;;5068623;28;19916;-70
2023/04/15 05:58:02;;;;;;;;;;;32.70;99.90;;;;;;5074799;28;19916;-70
2023/04/15 06:00:28;;;;;;;;;;;32.70;99.90;;;;;;5074823;28;19930;-68
2023/04/15 06:02:55;;;;;;;;;;;32.70;99.90;;;;;;5074735;28;19904;-67
2023/04/15 06:05:21;;;;;;;;;;;32.70;99.90;;;;;;5071206;28;19995;-71
2023/04/15 06:07:48;;;;;;;;;;;32.70;99.90;;;;;;5073851;28;19914;-71
2023/04/15 06:10:14;;;;;;;;;;;32.70;99.90;;;;;;5072552;28;19912;-71
2023/04/15 06:12:41;;;;;;;;;;;32.90;99.90;;;;;;5072736;28;19909;-70
2023/04/15 06:15:09;;;;;;;;;;;32.90;99.90;;;;;;5072673;28;19908;-73
2023/04/15 06:17:35;;;;;;;;;;;33.00;99.90;;;;;;5072388;28;20349;-70
2023/04/15 06:20:02;;;;;;;;;;;33.00;99.90;;;;;;5072311;28;19985;-73
2023/04/15 06:22:28;;;;;;;;;;;33.00;99.90;;;;;;5072101;28;19951;-71
2023/04/15 06:24:54;;;;;;;;;;;33.20;99.90;;;;;;5071951;28;19979;-72
2023/04/15 06:27:21;;;;;;;;;;;33.20;99.90;;;;;;5069394;28;19999;-70
2023/04/15 06:29:48;;;;;;;;;;;33.40;99.90;;;;;;5072383;28;19905;-72
2023/04/15 06:32:14;;;;;;;;;;;33.40;99.90;;;;;;5073558;28;19912;-72
2023/04/15 06:34:40;;;;;;;;;;;33.30;99.90;;;;;;5073197;28;19904;-72
2023/04/15 06:37:06;;;;;;;;;;;33.30;99.90;;;;;;5070230;28;20427;-72
2023/04/15 06:39:32;;;;;;;;;;;33.20;99.90;;;;;;5071075;28;20120;-74
2023/04/15 06:41:58;;;;;;;;;;;33.20;99.90;;;;;;5071368;28;20422;-72
2023/04/15 06:44:25;;;;;;;;;;;33.30;99.90;;;;;;5071094;28;20276;-71
2023/04/15 06:46:51;;;;;;;;;;;33.40;99.90;;;;;;5067635;28;19954;-72
2023/04/15 06:49:17;;;;;;;;;;;33.40;99.90;;;;;;5072057;28;19912;-72
2023/04/15 06:51:43;;;;;;;;;;;33.50;99.90;;;;;;5069514;28;20199;-73
2023/04/15 06:54:09;;;;;;;;;;;33.50;99.90;;;;;;5072081;28;19909;-74
2023/04/15 06:56:35;;;;;;;;;;;33.60;99.90;;;;;;5072291;28;19908;-71
2023/04/15 06:59:02;;;;;;;;;;;33.60;99.90;;;;;;5071459;28;19947;-73
2023/04/15 07:01:28;;;;;;;;;;;33.70;99.90;;;;;;5070317;28;19942;-70
2023/04/15 07:03:54;;;;;;;;;;;33.70;99.90;;;;;;5070975;28;19904;-71
2023/04/15 07:06:21;;;;;;;;;;;33.70;99.90;;;;;;5071469;28;19908;-72
2023/04/15 07:08:47;;;;;;;;;;;33.80;99.90;;;;;;5072194;28;19931;-72
2023/04/15 07:11:13;;;;;;;;;;;33.90;99.90;;;;;;5072175;28;20424;-73
2023/04/15 07:13:40;;;;;;;;;;;33.90;99.90;;;;;;5071909;28;19915;-72
2023/04/15 07:16:06;;;;;;;;;;;33.90;99.90;;;;;;5072048;28;20266;-71
2023/04/15 07:18:32;;;;;;;;;;;33.90;99.90;;;;;;5065570;28;19987;-72
2023/04/15 07:20:58;;;;;;;;;;;33.90;99.90;;;;;;5069913;28;19959;-71
2023/04/15 07:23:24;;;;;;;;;;;33.90;99.90;;;;;;5071883;28;19915;-72
2023/04/15 07:25:51;;;;;;;;;;;34.10;99.90;;;;;;5071721;28;20376;-70
2023/04/15 07:28:17;;;;;;;;;;;34.20;99.90;;;;;;5071409;28;19999;-69
2023/04/15 07:30:43;;;;;;;;;;;34.20;99.90;;;;;;5070492;28;19909;-69
2023/04/15 07:33:09;;;;;;;;;;;34.20;99.90;;;;;;5071551;28;19946;-70
2023/04/15 07:35:35;;;;;;;;;;;34.20;99.90;;;;;;5071590;28;20327;-74
2023/04/15 07:38:01;;;;;;;;;;;34.20;99.90;;;;;;5072159;28;19985;-73
2023/04/15 07:40:28;;;;;;;;;;;34.20;99.90;;;;;;5068486;28;19991;-73
2023/04/15 07:42:57;;;;;;;;;;;34.30;99.90;;;;;;5071628;28;19948;-72
2023/04/15 07:45:23;;;;;;;;;;;34.30;99.90;;;;;;5069771;28;20333;-72
2023/04/15 07:47:50;;;;;;;;;;;34.40;99.90;;;;;;5072519;28;20315;-72
2023/04/15 07:50:18;;;;;;;;;;;34.40;99.90;;;;;;5068110;28;20272;-74
2023/04/15 07:52:45;;;;;;;;;;;34.40;99.90;;;;;;5069481;28;19949;-74
2023/04/15 07:55:11;;;;;;;;;;;34.40;99.90;;;;;;5070686;28;20014;-73
2023/04/15 07:57:37;;;;;;;;;;;34.40;99.90;;;;;;5072091;28;20404;-74
2023/04/15 08:00:06;;;;;;;;;;;34.30;99.90;;;;;;5068471;28;20349;-75
2023/04/15 08:02:32;;;;;;;;;;;34.20;99.90;;;;;;5073015;28;19912;-73
2023/04/15 08:04:58;;;;;;;;;;;34.40;99.90;;;;;;5076054;28;19931;-73
2023/04/15 08:07:25;;;;;;;;;;;34.60;99.90;;;;;;5076129;28;20364;-75
2023/04/15 08:09:51;;;;;;;;;;;34.60;99.90;;;;;;5075135;28;19908;-74
2023/04/15 08:12:17;;;;;;;;;;;34.60;99.90;;;;;;5075908;28;20296;-76
2023/04/15 08:14:43;;;;;;;;;;;34.60;99.90;;;;;;5075720;28;19908;-74
2023/04/15 08:17:09;;;;;;;;;;;34.60;99.90;;;;;;5075340;28;19908;-73
2023/04/15 08:19:35;;;;;;;;;;;34.60;99.90;;;;;;5076236;28;19928;-73
2023/04/15 08:22:01;;;;;;;;;;;34.50;99.90;;;;;;5076430;28;19911;-73
2023/04/15 08:24:28;;;;;;;;;;;34.50;99.90;;;;;;5075600;28;20019;-71
2023/04/15 08:26:54;;;;;;;;;;;34.50;99.90;;;;;;5076030;28;19904;-71
2023/04/15 08:29:20;;;;;;;;;;;34.40;99.90;;;;;;5075610;28;20331;-73
2023/04/15 08:31:46;;;;;;;;;;;34.40;99.90;;;;;;5072944;28;19912;-73
2023/04/15 08:34:12;;;;;;;;;;;34.40;99.90;;;;;;5070707;28;20419;-71
2023/04/15 08:36:38;;;;;;;;;;;34.40;99.90;;;;;;5073384;28;19920;-72
2023/04/15 08:39:05;;;;;;;;;;;34.40;99.90;;;;;;5074994;28;19958;-71
2023/04/15 08:41:35;;;;;;;;;;;34.10;99.90;;;;;;5070836;28;20375;-71
2023/04/15 08:44:03;;;;;;;;;;;33.70;99.90;;;;;;5074496;28;19995;-71
2023/04/15 08:46:34;;;;;;;;;;;33.40;99.90;;;;;;5071307;28;19915;-71
2023/04/15 08:49:02;;;;;;;;;;;33.30;99.90;;;;;;5074633;28;20005;-71
2023/04/15 08:51:29;;;;;;;;;;;32.90;99.90;;;;;;5070894;28;20292;-74
2023/04/15 08:53:55;;;;;;;;;;;32.80;99.90;;;;;;5074939;28;19966;-73
2023/04/15 08:56:31;;;;;;;;;;;32.70;99.90;;;;;;5074895;28;20265;-72
2023/04/15 08:58:58;;;;;;;;;;;32.70;99.90;;;;;;5074067;28;19912;-70
2023/04/15 09:01:24;;;;;;;;;;;32.60;99.90;;;;;;5074536;28;19916;-70
2023/04/15 09:03:52;;;;;;;;;;;32.50;99.90;;;;;;5072636;28;20372;-71
2023/04/15 09:06:18;;;;;;;;;;;32.30;99.90;;;;;;5074968;28;19932;-71
2023/04/15 09:08:44;;;;;;;;;;;32.30;99.90;;;;;;5074847;28;19922;-71
2023/04/15 09:11:11;;;;;;;;;;;32.30;99.90;;;;;;5074763;28;19908;-71
2023/04/15 09:13:37;;;;;;;;;;;32.00;99.90;;;;;;5074407;28;19912;-70
2023/04/15 09:16:04;;;;;;;;;;;31.90;99.90;;;;;;5075120;28;20007;-70
2023/04/15 09:18:34;;;;;;;;;;;31.80;99.90;;;;;;5071346;28;19932;-70
2023/04/15 09:21:05;;;;;;;;;;;31.70;99.90;;;;;;5073051;28;19931;-71
2023/04/15 09:23:31;;;;;;;;;;;31.70;99.90;;;;;;5074297;28;19915;-70
2023/04/15 09:25:57;;;;;;;;;;;31.50;99.90;;;;;;5069849;28;19915;-70
2023/04/15 09:28:27;;;;;;;;;;;31.40;99.90;;;;;;5073741;28;20353;-67
2023/04/15 09:30:56;;;;;;;;;;;31.50;99.90;;;;;;5070571;28;20277;-71
2023/04/15 09:33:23;;;;;;;;;;;31.30;99.90;;;;;;5073788;28;20365;-70
2023/04/15 09:35:59;;;;;;;;;;;31.10;99.90;;;;;;5071598;28;19966;-70
2023/04/15 09:38:26;;;;;;;;;;;31.20;99.90;;;;;;5071117;28;19919;-71
2023/04/15 09:40:52;;;;;;;;;;;31.20;99.90;;;;;;5070645;28;20384;-72
2023/04/15 09:43:18;;;;;;;;;;;31.20;99.90;;;;;;5071054;28;20322;-71
2023/04/15 09:45:47;;;;;;;;;;;30.90;99.90;;;;;;5071939;28;19908;-70
2023/04/15 09:48:16;;;;;;;;;;;30.80;99.90;;;;;;5064217;28;19920;-71
2023/04/15 09:50:43;;;;;;;;;;;30.60;99.90;;;;;;5069808;28;19931;-70
2023/04/15 09:53:11;;;;;;;;;;;30.50;99.90;;;;;;5068110;28;20373;-72
2023/04/15 09:55:37;;;;;;;;;;;30.50;99.90;;;;;;5075161;28;19912;-72
2023/04/15 09:58:08;;;;;;;;;;;30.30;99.90;;;;;;5074024;28;20007;-71
2023/04/15 10:00:34;;;;;;;;;;;30.30;99.90;;;;;;5074720;28;19904;-70
2023/04/15 10:03:00;;;;;;;;;;;30.20;99.90;;;;;;5074630;28;19911;-70
2023/04/15 10:05:27;;;;;;;;;;;30.20;99.90;;;;;;5071242;28;19917;-71
2023/04/15 10:07:53;;;;;;;;;;;30.20;99.90;;;;;;5069121;28;19904;-70
2023/04/15 10:10:19;;;;;;;;;;;30.30;99.90;;;;;;5072241;28;20018;-71
2023/04/15 10:12:45;;;;;;;;;;;30.40;99.90;;;;;;5075149;28;19905;-73
2023/04/15 10:15:15;;;;;;;;;;;30.50;99.90;;;;;;5072919;28;20372;-74
2023/04/15 10:17:42;;;;;;;;;;;30.40;99.90;;;;;;5070173;28;19908;-75
2023/04/15 10:20:09;;;;;;;;;;;30.10;99.90;;;;;;5072896;28;20447;-72
2023/04/15 10:22:36;;;;;;;;;;;30.10;99.90;;;;;;5073554;28;19912;-70
2023/04/15 10:25:03;;;;;;;;;;;30.00;99.90;;;;;;5072646;28;19904;-71
2023/04/15 10:27:29;;;;;;;;;;;30.00;99.90;;;;;;5067390;28;20023;-70
2023/04/15 10:29:56;;;;;;;;;;;29.90;99.90;;;;;;5069302;28;21039;-72
2023/04/15 10:32:23;;;;;;;;;;;30.00;99.90;;;;;;5068622;28;19912;-75
2023/04/15 10:34:51;;;;;;;;;;;29.80;99.90;;;;;;5072911;28;20381;-70
2023/04/15 10:37:21;;;;;;;;;;;29.70;99.90;;;;;;5070701;28;19912;-69
2023/04/15 10:39:47;;;;;;;;;;;29.70;99.90;;;;;;5069370;28;19912;-69
2023/04/15 10:42:14;;;;;;;;;;;29.70;99.90;;;;;;5069854;28;19915;-69
2023/04/15 10:44:41;;;;;;;;;;;29.70;99.90;;;;;;5070408;28;19954;-69
2023/04/15 10:47:11;;;;;;;;;;;29.90;99.90;;;;;;5066798;28;20140;-67
2023/04/15 10:49:44;;;;;;;;;;;30.00;99.90;;;;;;5072347;28;19909;-69
2023/04/15 10:52:10;;;;;;;;;;;30.00;99.90;;;;;;5072118;28;19916;-70
2023/04/15 10:54:38;;;;;;;;;;;30.00;99.90;;;;;;5071593;28;20011;-71
2023/04/15 10:57:05;;;;;;;;;;;30.00;99.90;;;;;;5070924;28;19915;-66
2023/04/15 10:59:51;;;;;;;;;;;30.10;99.90;;;;;;5074206;28;20385;-68
2023/04/15 11:02:17;;;;;;;;;;;30.10;99.90;;;;;;5070705;28;19912;-69
2023/04/15 11:05:03;;;;;;;;;;;30.00;99.90;;;;;;5073914;28;19931;-70
2023/04/15 11:07:38;;;;;;;;;;;30.10;99.90;;;;;;5069322;28;19913;-72
2023/04/15 11:10:24;;;;;;;;;;;30.10;99.90;;;;;;5062158;28;19904;-69
2023/04/15 11:12:52;;;;;;;;;;;30.10;99.90;;;;;;5059032;28;20377;-70
2023/04/15 11:15:31;;;;;;;;;;;30.10;99.90;;;;;;5058207;28;19961;-68
2023/04/15 11:17:58;;;;;;;;;;;30.10;99.90;;;;;;5056659;28;19961;-71
2023/04/15 11:20:24;;;;;;;;;;;30.20;99.90;;;;;;5057452;28;19991;-68
2023/04/15 11:22:51;;;;;;;;;;;30.20;99.90;;;;;;5063837;28;19987;-69
2023/04/15 11:25:36;;;;;;;;;;;30.30;99.90;;;;;;5053065;28;19960;-71
2023/04/15 11:28:03;;;;;;;;;;;30.20;99.90;;;;;;5053234;28;19916;-67
2023/04/15 11:30:31;;;;;;;;;;;30.30;99.90;;;;;;5060709;28;19915;-70
2023/04/15 11:32:58;;;;;;;;;;;30.30;99.90;;;;;;5060887;28;19908;-69
2023/04/15 11:35:24;;;;;;;;;;;30.50;99.90;;;;;;5056863;28;20023;-68
2023/04/15 11:37:50;;;;;;;;;;;30.40;99.90;;;;;;5059267;28;20360;-69
2023/04/15 11:40:21;;;;;;;;;;;30.20;99.90;;;;;;5061050;28;20284;-69
2023/04/15 11:43:02;;;;;;;;;;;29.90;99.90;;;;;;5059869;28;19909;-69
2023/04/15 11:45:28;;;;;;;;;;;29.70;99.90;;;;;;5071957;28;20361;-70
2023/04/15 22:06:17;;;;;;;;;;;24.80;99.90;;;;;;5086977;28;20377;-71
2023/04/15 22:08:44;;;;;;;1035.63;655.85;;;25.00;99.90;;;;;;5076651;28;25063;-69
2023/04/15 22:11:29;;;;;;;391.48;293.58;;;25.20;99.90;;;;;;5078247;28;20754;-69
2023/04/15 22:13:57;;;;;;;596.85;408.92;;;25.40;99.90;;;;;;5079701;28;20426;-69
2023/04/15 22:16:25;;;;;;;567.55;440.95;;;25.60;99.90;;;;;;5078698;28;20480;-68
2023/04/15 22:18:51;;;;;;;143.55;87.72;;;25.80;99.90;;;;;;5078276;28;20436;-69
2023/04/15 22:21:18;;;;;;;114.22;72.65;;;25.90;99.90;;;;;;5080079;28;20358;-70
2023/04/15 22:23:47;;;;;;;830.80;591.87;;;26.10;99.90;;;;;;5078592;28;20811;-70
2023/04/15 22:26:14;;;;;;;285.08;194.05;;;26.20;99.90;;;;;;5077845;28;20376;-69
2023/04/15 22:28:40;;;;;;;27.40;16.02;;;26.30;99.90;;;;;;5075545;28;20458;-70
2023/04/15 22:31:07;;;;;;;16.23;10.85;;;26.40;99.90;;;;;;5078686;28;20381;-70
2023/04/15 22:33:34;;;;;;;15.23;9.95;;;26.50;99.90;;;;;;5079916;28;20408;-69
2023/04/15 22:36:00;;;;;;;17.00;10.48;;;26.60;99.90;;;;;;5081088;28;20401;-70
2023/04/15 22:38:27;;;;;;;13.77;10.43;;;26.60;99.90;;;;;;5068301;28;20395;-70
2023/04/15 22:40:53;;;;;;;21.57;15.67;;;26.70;99.90;;;;;;5057368;28;20898;-70
2023/04/15 22:43:20;;;;;;;26.00;18.45;;;26.70;99.90;;;;;;5048790;28;20831;-69
2023/04/15 22:45:49;;;;;;;50.70;37.35;;;26.70;99.90;;;;;;5065312;28;20391;-70
2023/04/15 22:48:17;;;;;;;133.38;98.68;;;26.80;99.90;;;;;;5068659;28;20448;-70
2023/04/15 22:50:43;;;;;;;35.70;26.92;;;26.80;99.90;;;;;;5068607;28;20363;-70
2023/04/15 22:53:10;;;;;;;39.72;32.08;;;26.90;99.90;;;;;;5068668;28;20363;-71
2023/04/15 22:55:36;;;;;;;88.15;61.50;;;26.90;99.90;;;;;;5068303;28;20549;-69
2023/04/15 22:58:03;;;;;;;19.05;10.98;;;26.90;99.90;;;;;;5068583;28;20367;-70
2023/04/15 23:00:29;;;;;;;20.10;14.50;;;26.90;99.90;;;;;;5068522;28;20737;-70
2023/04/15 23:02:56;;;;;;;19.60;13.30;;;26.90;99.90;;;;;;5068245;28;20449;-69
2023/04/15 23:05:22;;;;;;;63.35;47.28;;;26.90;99.90;;;;;;5068180;28;20478;-70
2023/04/15 23:07:49;;;;;;;23.80;16.87;;;26.90;99.90;;;;;;5068327;28;20903;-68
2023/04/15 23:10:16;;;;;;;16.50;9.95;;;26.90;99.90;;;;;;5068132;28;20371;-69
2023/04/15 23:12:42;;;;;;;15.02;9.55;;;26.90;99.90;;;;;;5068322;28;20856;-69
2023/04/15 23:15:09;;;;;;;16.73;10.18;;;26.90;99.90;;;;;;5068196;28;20425;-68
2023/04/15 23:17:36;;;;;;;16.60;10.10;;;26.90;99.90;;;;;;5054551;28;20835;-69
2023/04/15 23:20:02;;;;;;;14.43;9.40;;;26.90;99.90;;;;;;5053779;28;20380;-70
2023/04/15 23:22:29;;;;;;;18.73;9.90;;;26.90;99.90;;;;;;5054109;28;20779;-69
2023/04/15 23:24:56;;;;;;;16.00;9.63;;;26.90;99.90;;;;;;5054585;28;20392;-69
2023/04/15 23:27:22;;;;;;;14.98;9.55;;;26.90;99.90;;;;;;5048264;28;20384;-69
2023/04/15 23:29:49;;;;;;;65.82;44.70;;;27.00;99.90;;;;;;5043835;28;20971;-68
2023/04/15 23:32:15;;;;;;;73.53;50.08;;;27.00;99.90;;;;;;5034650;28;20360;-70
2023/04/15 23:34:42;;;;;;;171.70;110.53;;;27.10;99.90;;;;;;5054587;28;20356;-69
2023/04/15 23:37:08;;;;;;;81.18;50.45;;;27.20;99.90;;;;;;5038799;28;20368;-70
2023/04/15 23:39:35;;;;;;;65.55;44.47;;;27.20;99.90;;;;;;5034360;28;20754;-72
2023/04/15 23:42:02;;;;;;;86.20;62.80;;;27.20;99.90;;;;;;5034570;28;20372;-71
2023/04/15 23:44:28;;;;;;;35.80;21.42;;;27.30;99.90;;;;;;5034438;28;20877;-71
2023/04/15 23:46:55;;;;;;;32.60;17.55;;;27.30;99.90;;;;;;5034198;28;20445;-70
2023/04/15 23:49:21;;;;;;;34.15;15.60;;;27.30;99.90;;;;;;5034424;28;20362;-70
2023/04/15 23:51:48;;;;;;;22.50;13.63;;;27.30;99.90;;;;;;5034477;28;20419;-71
2023/04/15 23:54:14;;;;;;;19.33;11.13;;;27.30;99.90;;;;;;5046173;28;20367;-70
2023/04/15 23:56:41;;;;;;;17.97;11.47;;;27.40;99.90;;;;;;5054090;28;20359;-71
2023/04/15 23:59:07;;;;;;;18.93;11.50;;;27.40;99.90;;;;;;5054237;28;20724;-70
